sensor_id;sensor_type;location;lat;lon;timestamp;pressure;altitude;pressure_sealevel;temperature
20092;BMP180;10205;49.678;6.560;2023-11-19T00:00:52;99679.00;;;13.50
20092;BMP180;10205;49.678;6.560;2023-11-19T00:03:21;99669.00;;;13.50
20092;BMP180;10205;49.678;6.560;2023-11-19T00:05:48;99681.00;;;13.50
20092;BMP180;10205;49.678;6.560;2023-11-19T00:08:16;99685.00;;;13.50
20092;BMP180;10205;49.678;6.560;2023-11-19T00:10:43;99698.00;;;13.50
20092;BMP180;10205;49.678;6.560;2023-11-19T00:13:12;99709.00;;;13.50
20092;BMP180;10205;49.678;6.560;2023-11-19T00:15:39;99699.00;;;13.50
20092;BMP180;10205;49.678;6.560;2023-11-19T00:18:06;99697.00;;;13.60
20092;BMP180;10205;49.678;6.560;2023-11-19T00:20:34;99681.00;;;13.60
20092;BMP180;10205;49.678;6.560;2023-11-19T00:23:01;99679.00;;;13.60
20092;BMP180;10205;49.678;6.560;2023-11-19T00:25:29;99670.00;;;13.60
20092;BMP180;10205;49.678;6.560;2023-11-19T00:27:56;99666.00;;;13.60
20092;BMP180;10205;49.678;6.560;2023-11-19T00:30:23;99669.00;;;13.60
20092;BMP180;10205;49.678;6.560;2023-11-19T00:32:50;99681.00;;;13.60
20092;BMP180;10205;49.678;6.560;2023-11-19T00:35:17;99686.00;;;13.60
20092;BMP180;10205;49.678;6.560;2023-11-19T00:37:46;99673.00;;;13.60
20092;BMP180;10205;49.678;6.560;2023-11-19T00:40:13;99659.00;;;13.60
20092;BMP180;10205;49.678;6.560;2023-11-19T00:42:41;99656.00;;;13.60
20092;BMP180;10205;49.678;6.560;2023-11-19T00:45:09;99645.00;;;13.60
20092;BMP180;10205;49.678;6.560;2023-11-19T00:47:38;99643.00;;;13.70
20092;BMP180;10205;49.678;6.560;2023-11-19T00:50:06;99641.00;;;13.70
20092;BMP180;10205;49.678;6.560;2023-11-19T00:52:35;99606.00;;;13.70
20092;BMP180;10205;49.678;6.560;2023-11-19T00:55:05;99629.00;;;13.70
20092;BMP180;10205;49.678;6.560;2023-11-19T00:57:33;99647.00;;;13.70
20092;BMP180;10205;49.678;6.560;2023-11-19T01:00:00;99635.00;;;13.70
20092;BMP180;10205;49.678;6.560;2023-11-19T01:02:27;99644.00;;;13.70
20092;BMP180;10205;49.678;6.560;2023-11-19T01:04:54;99639.00;;;13.70
20092;BMP180;10205;49.678;6.560;2023-11-19T01:07:21;99643.00;;;13.80
20092;BMP180;10205;49.678;6.560;2023-11-19T01:09:50;99621.00;;;13.80
20092;BMP180;10205;49.678;6.560;2023-11-19T01:12:18;99638.00;;;13.80
20092;BMP180;10205;49.678;6.560;2023-11-19T01:14:45;99639.00;;;13.80
20092;BMP180;10205;49.678;6.560;2023-11-19T01:17:56;99627.00;;;13.80
20092;BMP180;10205;49.678;6.560;2023-11-19T01:20:23;99604.00;;;13.80
20092;BMP180;10205;49.678;6.560;2023-11-19T01:22:50;99635.00;;;13.80
20092;BMP180;10205;49.678;6.560;2023-11-19T01:25:17;99635.00;;;13.80
20092;BMP180;10205;49.678;6.560;2023-11-19T01:27:46;99636.00;;;13.90
20092;BMP180;10205;49.678;6.560;2023-11-19T01:30:13;99628.00;;;13.90
20092;BMP180;10205;49.678;6.560;2023-11-19T01:32:40;99618.00;;;13.90
20092;BMP180;10205;49.678;6.560;2023-11-19T01:35:08;99610.00;;;13.90
20092;BMP180;10205;49.678;6.560;2023-11-19T01:37:35;99621.00;;;13.90
20092;BMP180;10205;49.678;6.560;2023-11-19T01:40:03;99613.00;;;13.90
20092;BMP180;10205;49.678;6.560;2023-11-19T01:42:36;99613.00;;;13.90
20092;BMP180;10205;49.678;6.560;2023-11-19T01:45:07;99624.00;;;13.90
20092;BMP180;10205;49.678;6.560;2023-11-19T01:47:35;99613.00;;;13.90
20092;BMP180;10205;49.678;6.560;2023-11-19T01:53:55;99613.00;;;13.90
20092;BMP180;10205;49.678;6.560;2023-11-19T01:56:24;99605.00;;;13.90
20092;BMP180;10205;49.678;6.560;2023-11-19T01:58:54;99611.00;;;13.90
20092;BMP180;10205;49.678;6.560;2023-11-19T02:01:23;99613.00;;;14.00
20092;BMP180;10205;49.678;6.560;2023-11-19T02:03:51;99600.00;;;14.00
20092;BMP180;10205;49.678;6.560;2023-11-19T02:06:19;99587.00;;;14.00
20092;BMP180;10205;49.678;6.560;2023-11-19T02:08:46;99598.00;;;14.00
20092;BMP180;10205;49.678;6.560;2023-11-19T02:11:13;99605.00;;;14.00
20092;BMP180;10205;49.678;6.560;2023-11-19T02:13:40;99608.00;;;14.00
20092;BMP180;10205;49.678;6.560;2023-11-19T02:16:09;99600.00;;;14.10
20092;BMP180;10205;49.678;6.560;2023-11-19T02:18:38;99583.00;;;14.10
20092;BMP180;10205;49.678;6.560;2023-11-19T02:21:06;99588.00;;;14.10
20092;BMP180;10205;49.678;6.560;2023-11-19T02:23:33;99579.00;;;14.10
20092;BMP180;10205;49.678;6.560;2023-11-19T02:26:10;99570.00;;;14.10
20092;BMP180;10205;49.678;6.560;2023-11-19T02:28:42;99576.00;;;14.20
20092;BMP180;10205;49.678;6.560;2023-11-19T02:31:09;99579.00;;;14.20
20092;BMP180;10205;49.678;6.560;2023-11-19T02:33:40;99588.00;;;14.20
20092;BMP180;10205;49.678;6.560;2023-11-19T02:36:08;99585.00;;;14.20
20092;BMP180;10205;49.678;6.560;2023-11-19T02:38:36;99577.00;;;14.20
20092;BMP180;10205;49.678;6.560;2023-11-19T02:41:05;99572.00;;;14.20
20092;BMP180;10205;49.678;6.560;2023-11-19T02:43:33;99566.00;;;14.20
20092;BMP180;10205;49.678;6.560;2023-11-19T02:46:02;99556.00;;;14.20
20092;BMP180;10205;49.678;6.560;2023-11-19T02:48:32;99556.00;;;14.20
20092;BMP180;10205;49.678;6.560;2023-11-19T02:51:01;99540.00;;;14.20
20092;BMP180;10205;49.678;6.560;2023-11-19T02:53:29;99557.00;;;14.30
20092;BMP180;10205;49.678;6.560;2023-11-19T02:55:56;99556.00;;;14.30
20092;BMP180;10205;49.678;6.560;2023-11-19T02:58:30;99557.00;;;14.30
20092;BMP180;10205;49.678;6.560;2023-11-19T03:00:57;99566.00;;;14.30
20092;BMP180;10205;49.678;6.560;2023-11-19T03:03:29;99560.00;;;14.30
20092;BMP180;10205;49.678;6.560;2023-11-19T03:06:04;99551.00;;;14.30
20092;BMP180;10205;49.678;6.560;2023-11-19T03:08:32;99549.00;;;14.40
20092;BMP180;10205;49.678;6.560;2023-11-19T03:10:59;99550.00;;;14.40
20092;BMP180;10205;49.678;6.560;2023-11-19T03:13:51;99546.00;;;14.40
20092;BMP180;10205;49.678;6.560;2023-11-19T03:16:18;99565.00;;;14.50
20092;BMP180;10205;49.678;6.560;2023-11-19T03:18:47;99547.00;;;14.50
20092;BMP180;10205;49.678;6.560;2023-11-19T03:21:14;99548.00;;;14.50
20092;BMP180;10205;49.678;6.560;2023-11-19T03:23:41;99554.00;;;14.50
20092;BMP180;10205;49.678;6.560;2023-11-19T03:26:10;99554.00;;;14.50
20092;BMP180;10205;49.678;6.560;2023-11-19T03:28:37;99543.00;;;14.60
20092;BMP180;10205;49.678;6.560;2023-11-19T03:31:05;99542.00;;;14.60
20092;BMP180;10205;49.678;6.560;2023-11-19T03:33:34;99529.00;;;14.60
20092;BMP180;10205;49.678;6.560;2023-11-19T03:36:03;99548.00;;;14.70
20092;BMP180;10205;49.678;6.560;2023-11-19T03:38:31;99535.00;;;14.70
20092;BMP180;10205;49.678;6.560;2023-11-19T03:40:57;99527.00;;;14.70
20092;BMP180;10205;49.678;6.560;2023-11-19T03:43:25;99534.00;;;14.70
20092;BMP180;10205;49.678;6.560;2023-11-19T03:45:52;99531.00;;;14.70
20092;BMP180;10205;49.678;6.560;2023-11-19T03:48:19;99534.00;;;14.70
20092;BMP180;10205;49.678;6.560;2023-11-19T03:50:47;99545.00;;;14.80
20092;BMP180;10205;49.678;6.560;2023-11-19T03:53:16;99544.00;;;14.80
20092;BMP180;10205;49.678;6.560;2023-11-19T03:55:44;99545.00;;;14.80
20092;BMP180;10205;49.678;6.560;2023-11-19T03:58:11;99536.00;;;14.80
20092;BMP180;10205;49.678;6.560;2023-11-19T04:00:39;99537.00;;;14.80
20092;BMP180;10205;49.678;6.560;2023-11-19T04:03:06;99532.00;;;14.90
20092;BMP180;10205;49.678;6.560;2023-11-19T04:05:33;99531.00;;;14.90
20092;BMP180;10205;49.678;6.560;2023-11-19T04:11:42;99523.00;;;14.90
20092;BMP180;10205;49.678;6.560;2023-11-19T04:14:09;99525.00;;;14.90
20092;BMP180;10205;49.678;6.560;2023-11-19T04:16:36;99529.00;;;14.90
20092;BMP180;10205;49.678;6.560;2023-11-19T04:19:03;99524.00;;;15.00
20092;BMP180;10205;49.678;6.560;2023-11-19T04:21:30;99515.00;;;15.00
20092;BMP180;10205;49.678;6.560;2023-11-19T04:23:57;99521.00;;;15.00
20092;BMP180;10205;49.678;6.560;2023-11-19T04:26:25;99524.00;;;15.00
20092;BMP180;10205;49.678;6.560;2023-11-19T04:28:53;99510.00;;;15.10
20092;BMP180;10205;49.678;6.560;2023-11-19T04:31:20;99522.00;;;15.10
20092;BMP180;10205;49.678;6.560;2023-11-19T04:33:47;99506.00;;;15.10
20092;BMP180;10205;49.678;6.560;2023-11-19T04:36:19;99519.00;;;15.10
20092;BMP180;10205;49.678;6.560;2023-11-19T04:38:46;99520.00;;;15.10
20092;BMP180;10205;49.678;6.560;2023-11-19T04:41:13;99518.00;;;15.20
20092;BMP180;10205;49.678;6.560;2023-11-19T04:43:40;99521.00;;;15.20
20092;BMP180;10205;49.678;6.560;2023-11-19T04:46:10;99521.00;;;15.20
20092;BMP180;10205;49.678;6.560;2023-11-19T04:48:40;99523.00;;;15.20
20092;BMP180;10205;49.678;6.560;2023-11-19T04:51:07;99518.00;;;15.20
20092;BMP180;10205;49.678;6.560;2023-11-19T04:53:35;99527.00;;;15.20
20092;BMP180;10205;49.678;6.560;2023-11-19T04:56:08;99538.00;;;15.30
20092;BMP180;10205;49.678;6.560;2023-11-19T04:58:35;99541.00;;;15.30
20092;BMP180;10205;49.678;6.560;2023-11-19T05:01:04;99540.00;;;15.30
20092;BMP180;10205;49.678;6.560;2023-11-19T05:03:32;99536.00;;;15.30
20092;BMP180;10205;49.678;6.560;2023-11-19T05:05:59;99549.00;;;15.30
20092;BMP180;10205;49.678;6.560;2023-11-19T05:08:26;99547.00;;;15.40
20092;BMP180;10205;49.678;6.560;2023-11-19T05:10:53;99544.00;;;15.40
20092;BMP180;10205;49.678;6.560;2023-11-19T05:13:20;99543.00;;;15.40
20092;BMP180;10205;49.678;6.560;2023-11-19T05:15:48;99568.00;;;15.40
20092;BMP180;10205;49.678;6.560;2023-11-19T05:18:15;99555.00;;;15.40
20092;BMP180;10205;49.678;6.560;2023-11-19T05:20:43;99565.00;;;15.40
20092;BMP180;10205;49.678;6.560;2023-11-19T05:23:10;99565.00;;;15.50
20092;BMP180;10205;49.678;6.560;2023-11-19T05:25:37;99560.00;;;15.50
20092;BMP180;10205;49.678;6.560;2023-11-19T05:28:04;99579.00;;;15.50
20092;BMP180;10205;49.678;6.560;2023-11-19T05:30:31;99553.00;;;15.50
20092;BMP180;10205;49.678;6.560;2023-11-19T05:32:58;99555.00;;;15.50
20092;BMP180;10205;49.678;6.560;2023-11-19T05:35:26;99563.00;;;15.50
20092;BMP180;10205;49.678;6.560;2023-11-19T05:37:55;99555.00;;;15.60
20092;BMP180;10205;49.678;6.560;2023-11-19T05:40:21;99557.00;;;15.60
20092;BMP180;10205;49.678;6.560;2023-11-19T05:42:49;99562.00;;;15.60
20092;BMP180;10205;49.678;6.560;2023-11-19T05:45:16;99564.00;;;15.60
20092;BMP180;10205;49.678;6.560;2023-11-19T05:47:43;99572.00;;;15.60
20092;BMP180;10205;49.678;6.560;2023-11-19T05:50:10;99570.00;;;15.60
20092;BMP180;10205;49.678;6.560;2023-11-19T05:52:37;99578.00;;;15.60
20092;BMP180;10205;49.678;6.560;2023-11-19T05:55:07;99583.00;;;15.60
20092;BMP180;10205;49.678;6.560;2023-11-19T05:57:36;99570.00;;;15.60
20092;BMP180;10205;49.678;6.560;2023-11-19T06:00:04;99586.00;;;15.60
20092;BMP180;10205;49.678;6.560;2023-11-19T06:02:34;99580.00;;;15.60
20092;BMP180;10205;49.678;6.560;2023-11-19T06:05:04;99582.00;;;15.60
20092;BMP180;10205;49.678;6.560;2023-11-19T06:07:32;99595.00;;;15.60
20092;BMP180;10205;49.678;6.560;2023-11-19T06:09:59;99595.00;;;15.60
20092;BMP180;10205;49.678;6.560;2023-11-19T06:12:27;99573.00;;;15.60
20092;BMP180;10205;49.678;6.560;2023-11-19T06:14:54;99579.00;;;15.60
20092;BMP180;10205;49.678;6.560;2023-11-19T06:17:22;99579.00;;;15.70
20092;BMP180;10205;49.678;6.560;2023-11-19T06:19:49;99574.00;;;15.60
20092;BMP180;10205;49.678;6.560;2023-11-19T06:22:16;99585.00;;;15.70
20092;BMP180;10205;49.678;6.560;2023-11-19T06:24:43;99591.00;;;15.70
20092;BMP180;10205;49.678;6.560;2023-11-19T06:27:10;99580.00;;;15.70
20092;BMP180;10205;49.678;6.560;2023-11-19T06:29:42;99586.00;;;15.70
20092;BMP180;10205;49.678;6.560;2023-11-19T06:32:09;99586.00;;;15.70
20092;BMP180;10205;49.678;6.560;2023-11-19T06:34:37;99584.00;;;15.70
20092;BMP180;10205;49.678;6.560;2023-11-19T06:37:04;99590.00;;;15.70
20092;BMP180;10205;49.678;6.560;2023-11-19T06:39:31;99606.00;;;15.70
20092;BMP180;10205;49.678;6.560;2023-11-19T06:42:03;99618.00;;;15.70
20092;BMP180;10205;49.678;6.560;2023-11-19T06:44:30;99604.00;;;15.70
20092;BMP180;10205;49.678;6.560;2023-11-19T06:46:58;99597.00;;;15.70
20092;BMP180;10205;49.678;6.560;2023-11-19T06:49:25;99601.00;;;15.70
20092;BMP180;10205;49.678;6.560;2023-11-19T06:51:52;99612.00;;;15.70
20092;BMP180;10205;49.678;6.560;2023-11-19T06:54:19;99616.00;;;15.70
20092;BMP180;10205;49.678;6.560;2023-11-19T06:56:47;99611.00;;;15.70
20092;BMP180;10205;49.678;6.560;2023-11-19T06:59:15;99611.00;;;15.70
20092;BMP180;10205;49.678;6.560;2023-11-19T07:01:42;99615.00;;;15.70
20092;BMP180;10205;49.678;6.560;2023-11-19T07:04:12;99620.00;;;15.70
20092;BMP180;10205;49.678;6.560;2023-11-19T07:06:39;99602.00;;;15.70
20092;BMP180;10205;49.678;6.560;2023-11-19T07:09:07;99598.00;;;15.70
20092;BMP180;10205;49.678;6.560;2023-11-19T07:11:37;99615.00;;;15.80
20092;BMP180;10205;49.678;6.560;2023-11-19T07:14:04;99619.00;;;15.70
20092;BMP180;10205;49.678;6.560;2023-11-19T07:16:32;99610.00;;;15.70
20092;BMP180;10205;49.678;6.560;2023-11-19T07:19:00;99619.00;;;15.80
20092;BMP180;10205;49.678;6.560;2023-11-19T07:21:29;99621.00;;;15.70
20092;BMP180;10205;49.678;6.560;2023-11-19T07:23:56;99625.00;;;15.80
20092;BMP180;10205;49.678;6.560;2023-11-19T07:26:23;99639.00;;;15.80
20092;BMP180;10205;49.678;6.560;2023-11-19T07:28:51;99646.00;;;15.80
20092;BMP180;10205;49.678;6.560;2023-11-19T07:31:18;99646.00;;;15.80
20092;BMP180;10205;49.678;6.560;2023-11-19T07:33:45;99657.00;;;15.80
20092;BMP180;10205;49.678;6.560;2023-11-19T07:36:13;99657.00;;;15.80
20092;BMP180;10205;49.678;6.560;2023-11-19T07:38:42;99661.00;;;15.80
20092;BMP180;10205;49.678;6.560;2023-11-19T07:41:09;99665.00;;;15.80
20092;BMP180;10205;49.678;6.560;2023-11-19T07:43:39;99666.00;;;15.80
20092;BMP180;10205;49.678;6.560;2023-11-19T07:46:11;99661.00;;;15.80
20092;BMP180;10205;49.678;6.560;2023-11-19T07:48:39;99663.00;;;15.80
20092;BMP180;10205;49.678;6.560;2023-11-19T07:51:08;99672.00;;;15.80
20092;BMP180;10205;49.678;6.560;2023-11-19T07:53:35;99667.00;;;15.80
20092;BMP180;10205;49.678;6.560;2023-11-19T07:56:07;99654.00;;;15.80
20092;BMP180;10205;49.678;6.560;2023-11-19T07:58:35;99661.00;;;15.80
20092;BMP180;10205;49.678;6.560;2023-11-19T08:01:02;99659.00;;;15.80
20092;BMP180;10205;49.678;6.560;2023-11-19T08:03:30;99654.00;;;15.90
20092;BMP180;10205;49.678;6.560;2023-11-19T08:05:59;99652.00;;;15.90
20092;BMP180;10205;49.678;6.560;2023-11-19T08:08:27;99667.00;;;15.90
20092;BMP180;10205;49.678;6.560;2023-11-19T08:10:55;99667.00;;;15.90
20092;BMP180;10205;49.678;6.560;2023-11-19T08:13:24;99664.00;;;15.90
20092;BMP180;10205;49.678;6.560;2023-11-19T08:15:51;99680.00;;;15.90
20092;BMP180;10205;49.678;6.560;2023-11-19T08:18:18;99680.00;;;15.80
20092;BMP180;10205;49.678;6.560;2023-11-19T08:20:45;99673.00;;;15.80
20092;BMP180;10205;49.678;6.560;2023-11-19T08:23:18;99684.00;;;15.80
20092;BMP180;10205;49.678;6.560;2023-11-19T08:25:45;99681.00;;;15.90
20092;BMP180;10205;49.678;6.560;2023-11-19T08:28:12;99685.00;;;15.90
20092;BMP180;10205;49.678;6.560;2023-11-19T08:30:41;99683.00;;;15.90
20092;BMP180;10205;49.678;6.560;2023-11-19T08:33:09;99686.00;;;15.90
20092;BMP180;10205;49.678;6.560;2023-11-19T08:35:37;99700.00;;;15.90
20092;BMP180;10205;49.678;6.560;2023-11-19T08:38:04;99699.00;;;15.90
20092;BMP180;10205;49.678;6.560;2023-11-19T08:40:31;99701.00;;;15.90
20092;BMP180;10205;49.678;6.560;2023-11-19T08:42:58;99692.00;;;15.90
20092;BMP180;10205;49.678;6.560;2023-11-19T08:45:25;99696.00;;;15.90
20092;BMP180;10205;49.678;6.560;2023-11-19T08:47:54;99699.00;;;15.90
20092;BMP180;10205;49.678;6.560;2023-11-19T08:50:21;99698.00;;;15.90
20092;BMP180;10205;49.678;6.560;2023-11-19T08:52:48;99700.00;;;15.90
20092;BMP180;10205;49.678;6.560;2023-11-19T08:55:15;99705.00;;;15.90
20092;BMP180;10205;49.678;6.560;2023-11-19T08:57:42;99710.00;;;16.00
20092;BMP180;10205;49.678;6.560;2023-11-19T09:00:10;99706.00;;;16.00
20092;BMP180;10205;49.678;6.560;2023-11-19T09:02:40;99710.00;;;16.00
20092;BMP180;10205;49.678;6.560;2023-11-19T09:05:08;99707.00;;;16.00
20092;BMP180;10205;49.678;6.560;2023-11-19T09:07:36;99707.00;;;16.00
20092;BMP180;10205;49.678;6.560;2023-11-19T09:10:03;99712.00;;;16.00
20092;BMP180;10205;49.678;6.560;2023-11-19T09:12:31;99702.00;;;16.00
20092;BMP180;10205;49.678;6.560;2023-11-19T09:14:58;99698.00;;;16.00
20092;BMP180;10205;49.678;6.560;2023-11-19T09:17:25;99710.00;;;16.00
20092;BMP180;10205;49.678;6.560;2023-11-19T09:19:52;99712.00;;;16.10
20092;BMP180;10205;49.678;6.560;2023-11-19T09:22:21;99715.00;;;16.10
20092;BMP180;10205;49.678;6.560;2023-11-19T09:24:48;99727.00;;;16.10
20092;BMP180;10205;49.678;6.560;2023-11-19T09:27:15;99725.00;;;16.10
20092;BMP180;10205;49.678;6.560;2023-11-19T09:29:42;99720.00;;;16.10
20092;BMP180;10205;49.678;6.560;2023-11-19T09:32:11;99710.00;;;16.10
20092;BMP180;10205;49.678;6.560;2023-11-19T09:34:38;99707.00;;;16.20
20092;BMP180;10205;49.678;6.560;2023-11-19T09:37:05;99710.00;;;16.20
20092;BMP180;10205;49.678;6.560;2023-11-19T09:39:35;99717.00;;;16.20
20092;BMP180;10205;49.678;6.560;2023-11-19T09:42:03;99725.00;;;16.30
20092;BMP180;10205;49.678;6.560;2023-11-19T09:44:30;99717.00;;;16.30
20092;BMP180;10205;49.678;6.560;2023-11-19T09:46:59;99722.00;;;16.40
20092;BMP180;10205;49.678;6.560;2023-11-19T09:49:27;99726.00;;;16.40
20092;BMP180;10205;49.678;6.560;2023-11-19T09:51:55;99732.00;;;16.40
20092;BMP180;10205;49.678;6.560;2023-11-19T09:54:23;99731.00;;;16.50
20092;BMP180;10205;49.678;6.560;2023-11-19T09:56:51;99722.00;;;16.50
20092;BMP180;10205;49.678;6.560;2023-11-19T09:59:29;99724.00;;;16.60
20092;BMP180;10205;49.678;6.560;2023-11-19T10:01:57;99722.00;;;16.60
20092;BMP180;10205;49.678;6.560;2023-11-19T10:04:25;99722.00;;;16.60
20092;BMP180;10205;49.678;6.560;2023-11-19T10:06:56;99728.00;;;16.70
20092;BMP180;10205;49.678;6.560;2023-11-19T10:09:23;99726.00;;;16.70
20092;BMP180;10205;49.678;6.560;2023-11-19T10:11:51;99721.00;;;16.70
20092;BMP180;10205;49.678;6.560;2023-11-19T10:14:23;99722.00;;;16.70
20092;BMP180;10205;49.678;6.560;2023-11-19T10:16:50;99746.00;;;16.70
20092;BMP180;10205;49.678;6.560;2023-11-19T10:19:19;99729.00;;;16.70
20092;BMP180;10205;49.678;6.560;2023-11-19T10:21:47;99735.00;;;16.70
20092;BMP180;10205;49.678;6.560;2023-11-19T10:26:51;99727.00;;;16.70
20092;BMP180;10205;49.678;6.560;2023-11-19T10:29:18;99730.00;;;16.80
20092;BMP180;10205;49.678;6.560;2023-11-19T10:31:56;99732.00;;;16.80
20092;BMP180;10205;49.678;6.560;2023-11-19T10:34:27;99734.00;;;16.80
20092;BMP180;10205;49.678;6.560;2023-11-19T10:36:56;99724.00;;;16.80
20092;BMP180;10205;49.678;6.560;2023-11-19T10:39:23;99710.00;;;16.80
20092;BMP180;10205;49.678;6.560;2023-11-19T10:41:58;99704.00;;;16.80
20092;BMP180;10205;49.678;6.560;2023-11-19T10:44:43;99714.00;;;16.80
20092;BMP180;10205;49.678;6.560;2023-11-19T10:47:13;99700.00;;;16.90
20092;BMP180;10205;49.678;6.560;2023-11-19T10:49:44;99689.00;;;16.90
20092;BMP180;10205;49.678;6.560;2023-11-19T10:52:16;99705.00;;;16.80
20092;BMP180;10205;49.678;6.560;2023-11-19T10:54:50;99702.00;;;16.90
20092;BMP180;10205;49.678;6.560;2023-11-19T10:57:21;99687.00;;;16.90
20092;BMP180;10205;49.678;6.560;2023-11-19T11:00:02;99698.00;;;16.90
20092;BMP180;10205;49.678;6.560;2023-11-19T11:02:37;99695.00;;;16.90
20092;BMP180;10205;49.678;6.560;2023-11-19T11:05:12;99692.00;;;16.90
20092;BMP180;10205;49.678;6.560;2023-11-19T11:07:41;99676.00;;;16.90
20092;BMP180;10205;49.678;6.560;2023-11-19T11:10:13;99673.00;;;16.90
20092;BMP180;10205;49.678;6.560;2023-11-19T11:12:45;99682.00;;;16.90
20092;BMP180;10205;49.678;6.560;2023-11-19T11:15:18;99682.00;;;16.90
20092;BMP180;10205;49.678;6.560;2023-11-19T11:17:46;99685.00;;;16.90
20092;BMP180;10205;49.678;6.560;2023-11-19T11:20:14;99691.00;;;16.90
20092;BMP180;10205;49.678;6.560;2023-11-19T11:22:57;99697.00;;;16.90
20092;BMP180;10205;49.678;6.560;2023-11-19T11:25:43;99701.00;;;16.90
20092;BMP180;10205;49.678;6.560;2023-11-19T11:28:30;99696.00;;;16.90
20092;BMP180;10205;49.678;6.560;2023-11-19T11:31:15;99703.00;;;16.90
20092;BMP180;10205;49.678;6.560;2023-11-19T11:34:19;99697.00;;;16.90
20092;BMP180;10205;49.678;6.560;2023-11-19T11:37:02;99691.00;;;16.90
20092;BMP180;10205;49.678;6.560;2023-11-19T11:39:33;99687.00;;;17.00
20092;BMP180;10205;49.678;6.560;2023-11-19T11:42:33;99708.00;;;16.90
20092;BMP180;10205;49.678;6.560;2023-11-19T11:45:04;99692.00;;;16.90
20092;BMP180;10205;49.678;6.560;2023-11-19T11:48:10;99681.00;;;16.90
20092;BMP180;10205;49.678;6.560;2023-11-19T11:50:56;99692.00;;;16.90
20092;BMP180;10205;49.678;6.560;2023-11-19T11:53:26;99685.00;;;16.90
20092;BMP180;10205;49.678;6.560;2023-11-19T11:55:59;99690.00;;;16.90
20092;BMP180;10205;49.678;6.560;2023-11-19T11:58:32;99667.00;;;16.90
20092;BMP180;10205;49.678;6.560;2023-11-19T12:01:03;99672.00;;;16.80
20092;BMP180;10205;49.678;6.560;2023-11-19T12:03:33;99664.00;;;16.80
20092;BMP180;10205;49.678;6.560;2023-11-19T12:06:01;99674.00;;;16.80
20092;BMP180;10205;49.678;6.560;2023-11-19T12:08:30;99657.00;;;16.80
20092;BMP180;10205;49.678;6.560;2023-11-19T12:11:05;99659.00;;;16.80
20092;BMP180;10205;49.678;6.560;2023-11-19T12:13:54;99654.00;;;16.80
20092;BMP180;10205;49.678;6.560;2023-11-19T12:16:25;99648.00;;;16.80
20092;BMP180;10205;49.678;6.560;2023-11-19T12:18:56;99653.00;;;16.80
20092;BMP180;10205;49.678;6.560;2023-11-19T12:21:30;99645.00;;;16.80
20092;BMP180;10205;49.678;6.560;2023-11-19T12:23:59;99641.00;;;16.80
20092;BMP180;10205;49.678;6.560;2023-11-19T12:26:38;99630.00;;;16.80
20092;BMP180;10205;49.678;6.560;2023-11-19T12:29:06;99634.00;;;16.80
20092;BMP180;10205;49.678;6.560;2023-11-19T12:31:35;99621.00;;;16.80
20092;BMP180;10205;49.678;6.560;2023-11-19T12:34:08;99626.00;;;16.80
20092;BMP180;10205;49.678;6.560;2023-11-19T12:36:39;99617.00;;;16.80
20092;BMP180;10205;49.678;6.560;2023-11-19T12:39:08;99617.00;;;16.80
20092;BMP180;10205;49.678;6.560;2023-11-19T12:41:52;99618.00;;;16.80
20092;BMP180;10205;49.678;6.560;2023-11-19T12:44:21;99612.00;;;16.80
20092;BMP180;10205;49.678;6.560;2023-11-19T12:47:04;99624.00;;;16.80
20092;BMP180;10205;49.678;6.560;2023-11-19T12:49:32;99622.00;;;16.80
20092;BMP180;10205;49.678;6.560;2023-11-19T12:51:59;99614.00;;;16.70
20092;BMP180;10205;49.678;6.560;2023-11-19T12:54:34;99613.00;;;16.80
20092;BMP180;10205;49.678;6.560;2023-11-19T12:57:02;99624.00;;;16.80
20092;BMP180;10205;49.678;6.560;2023-11-19T12:59:32;99611.00;;;16.80
20092;BMP180;10205;49.678;6.560;2023-11-19T13:01:59;99620.00;;;16.80
20092;BMP180;10205;49.678;6.560;2023-11-19T13:04:34;99616.00;;;16.80
20092;BMP180;10205;49.678;6.560;2023-11-19T13:07:03;99619.00;;;16.80
20092;BMP180;10205;49.678;6.560;2023-11-19T13:09:31;99621.00;;;16.80
20092;BMP180;10205;49.678;6.560;2023-11-19T13:11:58;99613.00;;;16.90
20092;BMP180;10205;49.678;6.560;2023-11-19T13:14:36;99614.00;;;16.90
20092;BMP180;10205;49.678;6.560;2023-11-19T13:17:04;99608.00;;;16.90
20092;BMP180;10205;49.678;6.560;2023-11-19T13:19:34;99608.00;;;16.90
20092;BMP180;10205;49.678;6.560;2023-11-19T13:22:01;99612.00;;;16.90
20092;BMP180;10205;49.678;6.560;2023-11-19T13:24:29;99598.00;;;16.90
20092;BMP180;10205;49.678;6.560;2023-11-19T13:26:57;99609.00;;;16.90
20092;BMP180;10205;49.678;6.560;2023-11-19T13:29:28;99612.00;;;16.90
20092;BMP180;10205;49.678;6.560;2023-11-19T13:31:55;99618.00;;;16.90
20092;BMP180;10205;49.678;6.560;2023-11-19T13:34:22;99609.00;;;16.90
20092;BMP180;10205;49.678;6.560;2023-11-19T13:36:53;99621.00;;;16.90
20092;BMP180;10205;49.678;6.560;2023-11-19T13:39:20;99607.00;;;16.90
20092;BMP180;10205;49.678;6.560;2023-11-19T13:41:49;99625.00;;;16.90
20092;BMP180;10205;49.678;6.560;2023-11-19T13:44:16;99595.00;;;16.90
20092;BMP180;10205;49.678;6.560;2023-11-19T13:46:45;99617.00;;;16.90
20092;BMP180;10205;49.678;6.560;2023-11-19T13:49:13;99602.00;;;16.80
20092;BMP180;10205;49.678;6.560;2023-11-19T13:51:41;99610.00;;;16.80
20092;BMP180;10205;49.678;6.560;2023-11-19T13:54:10;99623.00;;;16.80
20092;BMP180;10205;49.678;6.560;2023-11-19T13:56:40;99618.00;;;16.80
20092;BMP180;10205;49.678;6.560;2023-11-19T13:59:10;99624.00;;;16.80
20092;BMP180;10205;49.678;6.560;2023-11-19T14:01:37;99604.00;;;16.80
20092;BMP180;10205;49.678;6.560;2023-11-19T14:04:05;99610.00;;;16.80
20092;BMP180;10205;49.678;6.560;2023-11-19T14:06:33;99621.00;;;16.80
20092;BMP180;10205;49.678;6.560;2023-11-19T14:09:00;99614.00;;;16.80
20092;BMP180;10205;49.678;6.560;2023-11-19T14:11:29;99626.00;;;16.80
20092;BMP180;10205;49.678;6.560;2023-11-19T14:13:56;99620.00;;;16.80
20092;BMP180;10205;49.678;6.560;2023-11-19T14:16:26;99608.00;;;16.80
20092;BMP180;10205;49.678;6.560;2023-11-19T14:18:53;99621.00;;;16.80
20092;BMP180;10205;49.678;6.560;2023-11-19T14:21:21;99611.00;;;16.80
20092;BMP180;10205;49.678;6.560;2023-11-19T14:23:48;99601.00;;;16.80
20092;BMP180;10205;49.678;6.560;2023-11-19T14:26:16;99605.00;;;16.80
20092;BMP180;10205;49.678;6.560;2023-11-19T14:28:44;99605.00;;;16.80
20092;BMP180;10205;49.678;6.560;2023-11-19T14:31:12;99608.00;;;16.80